Anita, Pennsylvania
Current Conditions -  °F | °C
As of 1:53 AM on Saturday 20 Dec 2014 (Local Time) from KDUJ Reporting Station
Broken Clouds Broken Clouds  
Wind Chill: -12°   Ceiling: 2000
Heat Index: -8°   Visibility: 10mi
Dew Point: -9°   Wind: 6mph
Humidity: 92%   Direction: 250°WSW
Pressure: 30.16"   Gusts: NA
Location:  41°N, 78.96°W
Report Text: KDUJ 200653Z AUTO 25005KT 10SM BKN020 M08/M09 A3016 RMK AO2 SLP239 T10781089
Loading
Personal Weather Stations






























Interactive Weather Map New forecast layout! Learn more

10-Day Weather Forecast

Advertisements
Track Severe Weather on mobile